sensor_id;sensor_type;location;lat;lon;timestamp;temperature;humidity
13436;DHT22;6790;49.520;8.504;2022-08-19T00:01:28;20.60;99.90
13436;DHT22;6790;49.520;8.504;2022-08-19T00:04:00;20.60;99.90
13436;DHT22;6790;49.520;8.504;2022-08-19T00:06:28;20.60;99.90
13436;DHT22;6790;49.520;8.504;2022-08-19T00:08:55;20.70;99.90
13436;DHT22;6790;49.520;8.504;2022-08-19T00:11:22;20.70;99.90
13436;DHT22;6790;49.520;8.504;2022-08-19T00:13:48;20.70;99.90
13436;DHT22;6790;49.520;8.504;2022-08-19T00:16:16;20.70;99.90
13436;DHT22;6790;49.520;8.504;2022-08-19T00:18:44;20.70;99.90
13436;DHT22;6790;49.520;8.504;2022-08-19T00:21:10;20.70;99.90
13436;DHT22;6790;49.520;8.504;2022-08-19T00:23:36;20.80;99.90
13436;DHT22;6790;49.520;8.504;2022-08-19T00:26:04;20.70;99.90
13436;DHT22;6790;49.520;8.504;2022-08-19T00:28:30;20.70;99.90
13436;DHT22;6790;49.520;8.504;2022-08-19T00:30:58;20.70;99.90
13436;DHT22;6790;49.520;8.504;2022-08-19T00:33:25;20.70;99.90
13436;DHT22;6790;49.520;8.504;2022-08-19T00:35:50;20.80;99.90
13436;DHT22;6790;49.520;8.504;2022-08-19T00:38:16;20.80;99.90
13436;DHT22;6790;49.520;8.504;2022-08-19T00:40:43;20.80;99.90
13436;DHT22;6790;49.520;8.504;2022-08-19T00:43:12;20.80;99.90
13436;DHT22;6790;49.520;8.504;2022-08-19T00:45:39;20.80;99.90
13436;DHT22;6790;49.520;8.504;2022-08-19T00:48:09;20.80;99.90
13436;DHT22;6790;49.520;8.504;2022-08-19T00:50:35;20.80;99.90
13436;DHT22;6790;49.520;8.504;2022-08-19T00:53:02;20.80;99.90
13436;DHT22;6790;49.520;8.504;2022-08-19T00:55:31;20.80;99.90
13436;DHT22;6790;49.520;8.504;2022-08-19T00:58:04;20.80;99.90
13436;DHT22;6790;49.520;8.504;2022-08-19T01:00:33;20.80;99.90
13436;DHT22;6790;49.520;8.504;2022-08-19T01:03:04;20.70;99.90
13436;DHT22;6790;49.520;8.504;2022-08-19T01:05:45;20.70;99.90
13436;DHT22;6790;49.520;8.504;2022-08-19T01:08:15;20.70;99.90
13436;DHT22;6790;49.520;8.504;2022-08-19T01:10:51;20.80;99.90
13436;DHT22;6790;49.520;8.504;2022-08-19T01:13:22;20.80;99.90
13436;DHT22;6790;49.520;8.504;2022-08-19T01:15:55;20.80;99.90
13436;DHT22;6790;49.520;8.504;2022-08-19T01:18:23;20.70;99.90
13436;DHT22;6790;49.520;8.504;2022-08-19T01:20:50;20.80;99.90
13436;DHT22;6790;49.520;8.504;2022-08-19T01:23:17;20.80;99.90
13436;DHT22;6790;49.520;8.504;2022-08-19T01:25:51;20.70;99.90
13436;DHT22;6790;49.520;8.504;2022-08-19T01:28:25;20.70;99.90
13436;DHT22;6790;49.520;8.504;2022-08-19T01:30:53;20.80;99.90
13436;DHT22;6790;49.520;8.504;2022-08-19T01:33:19;20.70;99.90
13436;DHT22;6790;49.520;8.504;2022-08-19T01:35:45;20.70;99.90
13436;DHT22;6790;49.520;8.504;2022-08-19T01:38:25;20.70;99.90
13436;DHT22;6790;49.520;8.504;2022-08-19T01:40:52;20.60;99.90
13436;DHT22;6790;49.520;8.504;2022-08-19T01:43:18;20.60;99.90
13436;DHT22;6790;49.520;8.504;2022-08-19T01:45:45;20.60;99.90
13436;DHT22;6790;49.520;8.504;2022-08-19T01:48:12;20.60;99.90
13436;DHT22;6790;49.520;8.504;2022-08-19T01:50:38;20.50;99.90
13436;DHT22;6790;49.520;8.504;2022-08-19T01:53:09;20.40;99.90
13436;DHT22;6790;49.520;8.504;2022-08-19T01:55:38;20.40;99.90
13436;DHT22;6790;49.520;8.504;2022-08-19T01:58:13;20.40;99.90
13436;DHT22;6790;49.520;8.504;2022-08-19T02:00:42;20.40;99.90
13436;DHT22;6790;49.520;8.504;2022-08-19T02:03:08;20.30;99.90
13436;DHT22;6790;49.520;8.504;2022-08-19T02:05:34;20.30;99.90
13436;DHT22;6790;49.520;8.504;2022-08-19T02:08:00;20.30;99.90
13436;DHT22;6790;49.520;8.504;2022-08-19T02:10:25;20.30;99.90
13436;DHT22;6790;49.520;8.504;2022-08-19T02:12:51;20.30;99.90
13436;DHT22;6790;49.520;8.504;2022-08-19T02:15:19;20.40;99.90
13436;DHT22;6790;49.520;8.504;2022-08-19T02:17:46;20.30;99.90
13436;DHT22;6790;49.520;8.504;2022-08-19T02:20:13;20.30;99.90
13436;DHT22;6790;49.520;8.504;2022-08-19T02:22:40;20.30;99.90
13436;DHT22;6790;49.520;8.504;2022-08-19T02:25:11;20.20;99.90
13436;DHT22;6790;49.520;8.504;2022-08-19T02:27:38;20.10;99.90
13436;DHT22;6790;49.520;8.504;2022-08-19T02:30:07;20.10;99.90
13436;DHT22;6790;49.520;8.504;2022-08-19T02:32:33;20.10;99.90
13436;DHT22;6790;49.520;8.504;2022-08-19T02:34:59;20.00;99.90
13436;DHT22;6790;49.520;8.504;2022-08-19T02:37:25;20.10;99.90
13436;DHT22;6790;49.520;8.504;2022-08-19T02:40:09;20.00;99.90
13436;DHT22;6790;49.520;8.504;2022-08-19T02:42:36;20.00;99.90
13436;DHT22;6790;49.520;8.504;2022-08-19T02:45:02;20.00;99.90
13436;DHT22;6790;49.520;8.504;2022-08-19T02:47:28;20.00;99.90
13436;DHT22;6790;49.520;8.504;2022-08-19T02:49:54;19.90;99.90
13436;DHT22;6790;49.520;8.504;2022-08-19T02:52:19;19.90;99.90
13436;DHT22;6790;49.520;8.504;2022-08-19T02:54:45;19.90;99.90
13436;DHT22;6790;49.520;8.504;2022-08-19T02:57:11;19.90;99.90
13436;DHT22;6790;49.520;8.504;2022-08-19T02:59:37;19.90;99.90
13436;DHT22;6790;49.520;8.504;2022-08-19T03:02:05;20.00;99.90
13436;DHT22;6790;49.520;8.504;2022-08-19T03:04:38;20.00;99.90
13436;DHT22;6790;49.520;8.504;2022-08-19T03:07:04;20.00;99.90
13436;DHT22;6790;49.520;8.504;2022-08-19T03:09:29;20.00;99.90
13436;DHT22;6790;49.520;8.504;2022-08-19T03:11:55;20.00;99.90
13436;DHT22;6790;49.520;8.504;2022-08-19T03:14:21;20.10;99.90
13436;DHT22;6790;49.520;8.504;2022-08-19T03:16:49;20.00;99.90
13436;DHT22;6790;49.520;8.504;2022-08-19T03:19:18;20.10;99.90
13436;DHT22;6790;49.520;8.504;2022-08-19T03:21:45;20.00;99.90
13436;DHT22;6790;49.520;8.504;2022-08-19T03:24:12;20.00;99.90
13436;DHT22;6790;49.520;8.504;2022-08-19T03:26:41;20.00;99.90
13436;DHT22;6790;49.520;8.504;2022-08-19T03:29:09;20.00;99.90
13436;DHT22;6790;49.520;8.504;2022-08-19T03:31:38;20.00;99.90
13436;DHT22;6790;49.520;8.504;2022-08-19T03:34:04;19.90;99.90
13436;DHT22;6790;49.520;8.504;2022-08-19T03:36:30;19.90;99.90
13436;DHT22;6790;49.520;8.504;2022-08-19T03:38:59;19.90;99.90
13436;DHT22;6790;49.520;8.504;2022-08-19T03:41:28;19.80;99.90
13436;DHT22;6790;49.520;8.504;2022-08-19T03:43:57;19.80;99.90
13436;DHT22;6790;49.520;8.504;2022-08-19T03:46:27;19.70;99.90
13436;DHT22;6790;49.520;8.504;2022-08-19T03:48:56;19.70;99.90
13436;DHT22;6790;49.520;8.504;2022-08-19T03:51:25;19.70;99.90
13436;DHT22;6790;49.520;8.504;2022-08-19T03:53:56;19.70;99.90
13436;DHT22;6790;49.520;8.504;2022-08-19T03:56:23;19.70;99.90
13436;DHT22;6790;49.520;8.504;2022-08-19T03:58:57;19.70;99.90
13436;DHT22;6790;49.520;8.504;2022-08-19T04:01:27;19.80;99.90
13436;DHT22;6790;49.520;8.504;2022-08-19T04:03:55;19.80;99.90
13436;DHT22;6790;49.520;8.504;2022-08-19T04:06:28;19.80;99.90
13436;DHT22;6790;49.520;8.504;2022-08-19T04:08:57;19.80;99.90
13436;DHT22;6790;49.520;8.504;2022-08-19T04:11:26;19.70;99.90
13436;DHT22;6790;49.520;8.504;2022-08-19T04:13:54;19.80;99.90
13436;DHT22;6790;49.520;8.504;2022-08-19T04:16:23;19.90;99.90
13436;DHT22;6790;49.520;8.504;2022-08-19T04:18:50;19.90;99.90
13436;DHT22;6790;49.520;8.504;2022-08-19T04:21:22;19.80;99.90
13436;DHT22;6790;49.520;8.504;2022-08-19T04:23:49;19.80;99.90
13436;DHT22;6790;49.520;8.504;2022-08-19T04:26:21;19.70;99.90
13436;DHT22;6790;49.520;8.504;2022-08-19T04:28:52;19.60;99.90
13436;DHT22;6790;49.520;8.504;2022-08-19T04:31:21;19.60;99.90
13436;DHT22;6790;49.520;8.504;2022-08-19T04:33:52;19.50;99.90
13436;DHT22;6790;49.520;8.504;2022-08-19T04:36:21;19.50;99.90
13436;DHT22;6790;49.520;8.504;2022-08-19T04:38:52;19.40;99.90
13436;DHT22;6790;49.520;8.504;2022-08-19T04:41:20;19.40;99.90
13436;DHT22;6790;49.520;8.504;2022-08-19T04:44:04;19.40;99.90
13436;DHT22;6790;49.520;8.504;2022-08-19T04:46:30;19.50;99.90
13436;DHT22;6790;49.520;8.504;2022-08-19T04:49:00;19.50;99.90
13436;DHT22;6790;49.520;8.504;2022-08-19T04:51:27;19.50;99.90
13436;DHT22;6790;49.520;8.504;2022-08-19T04:53:56;19.50;99.90
13436;DHT22;6790;49.520;8.504;2022-08-19T04:56:22;19.50;99.90
13436;DHT22;6790;49.520;8.504;2022-08-19T04:58:51;19.60;99.90
13436;DHT22;6790;49.520;8.504;2022-08-19T05:01:20;19.60;99.90
13436;DHT22;6790;49.520;8.504;2022-08-19T05:03:48;19.60;99.90
13436;DHT22;6790;49.520;8.504;2022-08-19T05:06:16;19.60;99.90
13436;DHT22;6790;49.520;8.504;2022-08-19T05:08:44;19.60;99.90
13436;DHT22;6790;49.520;8.504;2022-08-19T05:13:46;19.70;99.90
13436;DHT22;6790;49.520;8.504;2022-08-19T05:16:12;19.70;99.90
13436;DHT22;6790;49.520;8.504;2022-08-19T05:18:39;19.70;99.90
13436;DHT22;6790;49.520;8.504;2022-08-19T05:21:25;19.80;99.90
13436;DHT22;6790;49.520;8.504;2022-08-19T05:24:10;19.80;99.90
13436;DHT22;6790;49.520;8.504;2022-08-19T05:26:37;19.80;99.90
13436;DHT22;6790;49.520;8.504;2022-08-19T05:29:05;19.80;99.90
13436;DHT22;6790;49.520;8.504;2022-08-19T05:31:33;19.80;99.90
13436;DHT22;6790;49.520;8.504;2022-08-19T05:33:58;19.80;99.90
13436;DHT22;6790;49.520;8.504;2022-08-19T05:36:32;19.90;99.90
13436;DHT22;6790;49.520;8.504;2022-08-19T05:39:00;19.90;99.90
13436;DHT22;6790;49.520;8.504;2022-08-19T05:41:26;20.00;99.90
13436;DHT22;6790;49.520;8.504;2022-08-19T05:43:57;20.10;99.90
13436;DHT22;6790;49.520;8.504;2022-08-19T05:46:23;20.20;99.90
13436;DHT22;6790;49.520;8.504;2022-08-19T05:48:49;20.20;99.90
13436;DHT22;6790;49.520;8.504;2022-08-19T05:51:15;20.30;99.90
13436;DHT22;6790;49.520;8.504;2022-08-19T05:53:42;20.30;99.90
13436;DHT22;6790;49.520;8.504;2022-08-19T05:56:11;20.40;99.90
13436;DHT22;6790;49.520;8.504;2022-08-19T05:58:40;20.40;99.90
13436;DHT22;6790;49.520;8.504;2022-08-19T06:01:12;20.50;99.90
13436;DHT22;6790;49.520;8.504;2022-08-19T06:03:42;20.60;99.90
13436;DHT22;6790;49.520;8.504;2022-08-19T06:06:10;20.60;99.90
13436;DHT22;6790;49.520;8.504;2022-08-19T06:08:38;20.70;99.90
13436;DHT22;6790;49.520;8.504;2022-08-19T06:11:32;20.70;99.90
13436;DHT22;6790;49.520;8.504;2022-08-19T06:14:01;20.80;99.90
13436;DHT22;6790;49.520;8.504;2022-08-19T06:16:34;20.80;99.90
13436;DHT22;6790;49.520;8.504;2022-08-19T06:19:03;20.90;99.90
13436;DHT22;6790;49.520;8.504;2022-08-19T06:21:30;21.00;99.90
13436;DHT22;6790;49.520;8.504;2022-08-19T06:23:56;21.10;99.90
13436;DHT22;6790;49.520;8.504;2022-08-19T06:26:23;21.10;99.90
13436;DHT22;6790;49.520;8.504;2022-08-19T06:28:50;21.20;99.90
13436;DHT22;6790;49.520;8.504;2022-08-19T06:31:24;21.20;99.90
13436;DHT22;6790;49.520;8.504;2022-08-19T06:33:51;21.30;99.90
13436;DHT22;6790;49.520;8.504;2022-08-19T06:36:27;21.30;99.90
13436;DHT22;6790;49.520;8.504;2022-08-19T06:38:58;21.40;99.90
13436;DHT22;6790;49.520;8.504;2022-08-19T06:41:25;21.40;99.90
13436;DHT22;6790;49.520;8.504;2022-08-19T06:43:52;21.50;99.90
13436;DHT22;6790;49.520;8.504;2022-08-19T06:46:19;21.60;99.90
13436;DHT22;6790;49.520;8.504;2022-08-19T06:48:46;21.60;99.90
13436;DHT22;6790;49.520;8.504;2022-08-19T06:51:14;21.70;99.90
13436;DHT22;6790;49.520;8.504;2022-08-19T06:53:47;21.70;99.90
13436;DHT22;6790;49.520;8.504;2022-08-19T06:56:15;21.60;99.90
13436;DHT22;6790;49.520;8.504;2022-08-19T06:58:42;21.50;99.90
13436;DHT22;6790;49.520;8.504;2022-08-19T07:01:08;21.50;99.90
13436;DHT22;6790;49.520;8.504;2022-08-19T07:03:37;21.50;99.90
13436;DHT22;6790;49.520;8.504;2022-08-19T07:06:10;21.50;99.90
13436;DHT22;6790;49.520;8.504;2022-08-19T07:08:38;21.50;99.90
13436;DHT22;6790;49.520;8.504;2022-08-19T07:11:09;21.50;99.90
13436;DHT22;6790;49.520;8.504;2022-08-19T07:13:36;21.50;99.90
13436;DHT22;6790;49.520;8.504;2022-08-19T07:16:04;21.60;99.90
13436;DHT22;6790;49.520;8.504;2022-08-19T07:18:31;21.60;99.90
13436;DHT22;6790;49.520;8.504;2022-08-19T07:21:05;21.70;99.90
13436;DHT22;6790;49.520;8.504;2022-08-19T07:23:33;21.70;99.90
13436;DHT22;6790;49.520;8.504;2022-08-19T07:26:08;21.80;99.90
13436;DHT22;6790;49.520;8.504;2022-08-19T07:28:35;21.90;99.90
13436;DHT22;6790;49.520;8.504;2022-08-19T07:31:07;22.00;99.90
13436;DHT22;6790;49.520;8.504;2022-08-19T07:33:36;22.00;99.90
13436;DHT22;6790;49.520;8.504;2022-08-19T07:36:07;22.00;99.90
13436;DHT22;6790;49.520;8.504;2022-08-19T07:38:37;22.00;99.90
13436;DHT22;6790;49.520;8.504;2022-08-19T07:41:05;22.10;99.90
13436;DHT22;6790;49.520;8.504;2022-08-19T07:43:31;22.20;99.90
13436;DHT22;6790;49.520;8.504;2022-08-19T07:45:57;22.50;99.90
13436;DHT22;6790;49.520;8.504;2022-08-19T07:48:24;22.80;99.90
13436;DHT22;6790;49.520;8.504;2022-08-19T07:50:55;23.00;99.90
13436;DHT22;6790;49.520;8.504;2022-08-19T07:53:24;23.20;99.90
13436;DHT22;6790;49.520;8.504;2022-08-19T07:55:50;23.20;98.90
13436;DHT22;6790;49.520;8.504;2022-08-19T07:58:18;23.00;99.70
13436;DHT22;6790;49.520;8.504;2022-08-19T08:00:48;22.80;99.60
13436;DHT22;6790;49.520;8.504;2022-08-19T08:03:17;22.80;99.70
13436;DHT22;6790;49.520;8.504;2022-08-19T08:05:44;22.80;99.90
13436;DHT22;6790;49.520;8.504;2022-08-19T08:08:30;22.80;99.90
13436;DHT22;6790;49.520;8.504;2022-08-19T08:11:02;22.90;99.90
13436;DHT22;6790;49.520;8.504;2022-08-19T08:13:29;22.80;99.70
13436;DHT22;6790;49.520;8.504;2022-08-19T08:15:56;23.10;99.90
13436;DHT22;6790;49.520;8.504;2022-08-19T08:18:23;23.30;99.30
13436;DHT22;6790;49.520;8.504;2022-08-19T08:20:49;23.70;97.60
13436;DHT22;6790;49.520;8.504;2022-08-19T08:23:15;24.00;96.70
13436;DHT22;6790;49.520;8.504;2022-08-19T08:25:56;24.20;97.20
13436;DHT22;6790;49.520;8.504;2022-08-19T08:28:22;24.30;95.80
13436;DHT22;6790;49.520;8.504;2022-08-19T08:30:49;24.50;95.90
13436;DHT22;6790;49.520;8.504;2022-08-19T08:33:20;24.60;94.80
13436;DHT22;6790;49.520;8.504;2022-08-19T08:35:48;24.30;95.40
13436;DHT22;6790;49.520;8.504;2022-08-19T08:38:15;24.40;96.50
13436;DHT22;6790;49.520;8.504;2022-08-19T08:43:27;24.60;94.50
13436;DHT22;6790;49.520;8.504;2022-08-19T08:46:09;24.70;93.80
13436;DHT22;6790;49.520;8.504;2022-08-19T08:48:42;24.80;93.20
13436;DHT22;6790;49.520;8.504;2022-08-19T08:51:26;25.10;94.60
13436;DHT22;6790;49.520;8.504;2022-08-19T08:53:56;25.40;91.70
13436;DHT22;6790;49.520;8.504;2022-08-19T08:56:22;25.50;92.40
13436;DHT22;6790;49.520;8.504;2022-08-19T08:59:31;25.40;92.40
13436;DHT22;6790;49.520;8.504;2022-08-19T09:01:57;24.90;92.40
13436;DHT22;6790;49.520;8.504;2022-08-19T09:04:22;24.70;92.30
13436;DHT22;6790;49.520;8.504;2022-08-19T09:07:32;24.90;93.30
13436;DHT22;6790;49.520;8.504;2022-08-19T09:09:49;25.60;91.80
13436;DHT22;6790;49.520;8.504;2022-08-19T09:17:32;26.10;87.50
13436;DHT22;6790;49.520;8.504;2022-08-19T09:20:20;26.00;88.50
13436;DHT22;6790;49.520;8.504;2022-08-19T09:22:47;25.90;88.40
13436;DHT22;6790;49.520;8.504;2022-08-19T09:25:20;26.00;87.10
13436;DHT22;6790;49.520;8.504;2022-08-19T09:27:48;26.10;87.10
13436;DHT22;6790;49.520;8.504;2022-08-19T09:30:17;26.00;87.30
13436;DHT22;6790;49.520;8.504;2022-08-19T09:32:52;25.70;89.30
13436;DHT22;6790;49.520;8.504;2022-08-19T09:35:20;25.90;90.20
13436;DHT22;6790;49.520;8.504;2022-08-19T09:37:48;26.10;89.00
13436;DHT22;6790;49.520;8.504;2022-08-19T09:40:15;25.90;88.50
13436;DHT22;6790;49.520;8.504;2022-08-19T09:42:42;26.20;90.10
13436;DHT22;6790;49.520;8.504;2022-08-19T09:45:09;26.00;89.30
13436;DHT22;6790;49.520;8.504;2022-08-19T09:47:36;25.90;85.10
13436;DHT22;6790;49.520;8.504;2022-08-19T09:50:05;25.60;85.80
13436;DHT22;6790;49.520;8.504;2022-08-19T09:52:32;25.40;89.50
13436;DHT22;6790;49.520;8.504;2022-08-19T09:54:58;25.30;90.00
13436;DHT22;6790;49.520;8.504;2022-08-19T09:57:24;25.20;89.40
13436;DHT22;6790;49.520;8.504;2022-08-19T09:59:50;25.20;89.40
13436;DHT22;6790;49.520;8.504;2022-08-19T10:02:16;25.30;92.30
13436;DHT22;6790;49.520;8.504;2022-08-19T10:04:41;25.30;90.80
13436;DHT22;6790;49.520;8.504;2022-08-19T10:07:25;25.30;90.30
13436;DHT22;6790;49.520;8.504;2022-08-19T10:09:51;25.10;89.70
13436;DHT22;6790;49.520;8.504;2022-08-19T10:12:17;24.90;90.80
13436;DHT22;6790;49.520;8.504;2022-08-19T10:14:42;25.40;87.10
13436;DHT22;6790;49.520;8.504;2022-08-19T10:17:09;26.10;89.10
13436;DHT22;6790;49.520;8.504;2022-08-19T10:19:35;26.50;80.20
13436;DHT22;6790;49.520;8.504;2022-08-19T10:22:05;26.80;83.60
13436;DHT22;6790;49.520;8.504;2022-08-19T10:24:32;26.50;85.30
13436;DHT22;6790;49.520;8.504;2022-08-19T10:27:01;26.00;83.90
13436;DHT22;6790;49.520;8.504;2022-08-19T10:29:30;25.90;89.20
13436;DHT22;6790;49.520;8.504;2022-08-19T10:31:57;26.10;85.90
13436;DHT22;6790;49.520;8.504;2022-08-19T10:34:28;26.50;85.00
13436;DHT22;6790;49.520;8.504;2022-08-19T10:36:55;26.90;80.70
13436;DHT22;6790;49.520;8.504;2022-08-19T10:39:22;26.80;83.80
13436;DHT22;6790;49.520;8.504;2022-08-19T10:41:47;26.80;82.70
13436;DHT22;6790;49.520;8.504;2022-08-19T10:44:13;27.20;80.10
13436;DHT22;6790;49.520;8.504;2022-08-19T10:46:42;26.80;80.10
13436;DHT22;6790;49.520;8.504;2022-08-19T10:49:13;26.90;79.80
13436;DHT22;6790;49.520;8.504;2022-08-19T10:51:41;27.30;78.30
13436;DHT22;6790;49.520;8.504;2022-08-19T10:54:26;27.60;75.90
13436;DHT22;6790;49.520;8.504;2022-08-19T10:57:13;27.70;75.80
13436;DHT22;6790;49.520;8.504;2022-08-19T10:59:39;27.70;76.90
13436;DHT22;6790;49.520;8.504;2022-08-19T11:02:07;27.90;73.40
13436;DHT22;6790;49.520;8.504;2022-08-19T11:04:39;28.10;69.50
13436;DHT22;6790;49.520;8.504;2022-08-19T11:07:06;28.40;71.00
13436;DHT22;6790;49.520;8.504;2022-08-19T11:09:38;28.50;67.20
13436;DHT22;6790;49.520;8.504;2022-08-19T11:12:06;27.90;68.60
13436;DHT22;6790;49.520;8.504;2022-08-19T11:14:33;27.90;73.40
13436;DHT22;6790;49.520;8.504;2022-08-19T11:16:59;27.70;71.70
13436;DHT22;6790;49.520;8.504;2022-08-19T11:19:25;27.80;73.30
13436;DHT22;6790;49.520;8.504;2022-08-19T11:21:52;27.60;69.30
13436;DHT22;6790;49.520;8.504;2022-08-19T11:24:24;27.10;73.60
13436;DHT22;6790;49.520;8.504;2022-08-19T11:26:52;27.30;73.60
13436;DHT22;6790;49.520;8.504;2022-08-19T11:29:25;27.70;72.30
13436;DHT22;6790;49.520;8.504;2022-08-19T11:31:53;28.10;71.20
13436;DHT22;6790;49.520;8.504;2022-08-19T11:34:25;27.80;69.00
13436;DHT22;6790;49.520;8.504;2022-08-19T11:36:53;27.90;70.50
13436;DHT22;6790;49.520;8.504;2022-08-19T11:39:22;28.20;71.00
13436;DHT22;6790;49.520;8.504;2022-08-19T11:41:48;28.30;68.40
13436;DHT22;6790;49.520;8.504;2022-08-19T11:44:14;28.40;64.30
13436;DHT22;6790;49.520;8.504;2022-08-19T11:46:41;28.40;62.00
13436;DHT22;6790;49.520;8.504;2022-08-19T11:49:16;28.50;59.70
13436;DHT22;6790;49.520;8.504;2022-08-19T11:51:44;28.20;63.00
13436;DHT22;6790;49.520;8.504;2022-08-19T11:54:15;28.10;63.30
13436;DHT22;6790;49.520;8.504;2022-08-19T11:56:42;27.70;67.80
13436;DHT22;6790;49.520;8.504;2022-08-19T11:59:09;27.40;70.60
13436;DHT22;6790;49.520;8.504;2022-08-19T12:01:36;27.00;69.90
13436;DHT22;6790;49.520;8.504;2022-08-19T12:04:02;26.80;72.10
13436;DHT22;6790;49.520;8.504;2022-08-19T12:06:32;26.80;70.60
13436;DHT22;6790;49.520;8.504;2022-08-19T12:09:03;27.30;68.70
13436;DHT22;6790;49.520;8.504;2022-08-19T12:11:31;28.00;63.20
13436;DHT22;6790;49.520;8.504;2022-08-19T12:13:57;28.40;59.50
13436;DHT22;6790;49.520;8.504;2022-08-19T12:16:26;28.30;60.60
13436;DHT22;6790;49.520;8.504;2022-08-19T12:18:54;27.90;61.00
13436;DHT22;6790;49.520;8.504;2022-08-19T12:21:23;27.50;65.20
13436;DHT22;6790;49.520;8.504;2022-08-19T12:23:54;27.60;62.60
13436;DHT22;6790;49.520;8.504;2022-08-19T12:26:22;28.30;59.60
13436;DHT22;6790;49.520;8.504;2022-08-19T12:28:48;28.30;63.10
13436;DHT22;6790;49.520;8.504;2022-08-19T12:31:14;27.80;64.70
13436;DHT22;6790;49.520;8.504;2022-08-19T12:33:40;27.50;67.60
13436;DHT22;6790;49.520;8.504;2022-08-19T12:36:10;27.30;59.40
13436;DHT22;6790;49.520;8.504;2022-08-19T12:38:39;27.00;57.10
13436;DHT22;6790;49.520;8.504;2022-08-19T12:41:06;26.80;60.50
13436;DHT22;6790;49.520;8.504;2022-08-19T12:43:34;26.80;57.30
13436;DHT22;6790;49.520;8.504;2022-08-19T12:46:00;27.40;57.20
13436;DHT22;6790;49.520;8.504;2022-08-19T12:48:27;28.10;56.20
13436;DHT22;6790;49.520;8.504;2022-08-19T12:50:54;28.70;53.20
13436;DHT22;6790;49.520;8.504;2022-08-19T12:53:20;29.00;49.80
13436;DHT22;6790;49.520;8.504;2022-08-19T12:55:45;29.40;46.30
13436;DHT22;6790;49.520;8.504;2022-08-19T12:58:12;29.20;45.70
13436;DHT22;6790;49.520;8.504;2022-08-19T13:00:38;28.50;46.50
13436;DHT22;6790;49.520;8.504;2022-08-19T13:03:04;28.60;46.60
13436;DHT22;6790;49.520;8.504;2022-08-19T13:05:31;28.80;45.90
13436;DHT22;6790;49.520;8.504;2022-08-19T13:08:01;28.60;43.50
13436;DHT22;6790;49.520;8.504;2022-08-19T13:10:31;28.80;45.60
13436;DHT22;6790;49.520;8.504;2022-08-19T13:13:01;29.10;42.90
13436;DHT22;6790;49.520;8.504;2022-08-19T13:15:34;29.30;44.60
13436;DHT22;6790;49.520;8.504;2022-08-19T13:18:01;29.40;43.60
13436;DHT22;6790;49.520;8.504;2022-08-19T13:20:27;29.50;41.00
13436;DHT22;6790;49.520;8.504;2022-08-19T13:22:54;29.60;40.40
13436;DHT22;6790;49.520;8.504;2022-08-19T13:25:22;29.70;40.40
13436;DHT22;6790;49.520;8.504;2022-08-19T13:27:49;29.60;39.60
13436;DHT22;6790;49.520;8.504;2022-08-19T13:30:17;29.50;40.50
13436;DHT22;6790;49.520;8.504;2022-08-19T13:33:02;29.70;41.90
13436;DHT22;6790;49.520;8.504;2022-08-19T13:35:51;29.80;38.30
13436;DHT22;6790;49.520;8.504;2022-08-19T13:38:21;29.80;39.90
13436;DHT22;6790;49.520;8.504;2022-08-19T13:40:49;29.90;43.10
13436;DHT22;6790;49.520;8.504;2022-08-19T13:43:16;30.00;39.40
13436;DHT22;6790;49.520;8.504;2022-08-19T13:45:42;30.00;38.70
13436;DHT22;6790;49.520;8.504;2022-08-19T13:48:08;30.10;37.00
13436;DHT22;6790;49.520;8.504;2022-08-19T13:50:45;29.90;42.70
13436;DHT22;6790;49.520;8.504;2022-08-19T13:53:12;29.80;39.30
13436;DHT22;6790;49.520;8.504;2022-08-19T13:55:40;29.70;41.50
13436;DHT22;6790;49.520;8.504;2022-08-19T13:58:07;29.60;41.90
13436;DHT22;6790;49.520;8.504;2022-08-19T14:00:39;29.50;41.60
13436;DHT22;6790;49.520;8.504;2022-08-19T14:03:10;29.60;46.60
13436;DHT22;6790;49.520;8.504;2022-08-19T14:05:37;29.40;37.40
13436;DHT22;6790;49.520;8.504;2022-08-19T14:08:04;29.40;40.30
13436;DHT22;6790;49.520;8.504;2022-08-19T14:10:29;29.50;39.50
13436;DHT22;6790;49.520;8.504;2022-08-19T14:12:58;29.60;36.90
13436;DHT22;6790;49.520;8.504;2022-08-19T14:15:26;29.70;36.90
13436;DHT22;6790;49.520;8.504;2022-08-19T14:17:53;29.70;35.70
13436;DHT22;6790;49.520;8.504;2022-08-19T14:20:19;29.60;37.50
13436;DHT22;6790;49.520;8.504;2022-08-19T14:22:47;29.60;35.40
13436;DHT22;6790;49.520;8.504;2022-08-19T14:25:16;29.50;35.90
13436;DHT22;6790;49.520;8.504;2022-08-19T14:27:43;29.70;34.80
13436;DHT22;6790;49.520;8.504;2022-08-19T14:30:12;29.70;34.20
13436;DHT22;6790;49.520;8.504;2022-08-19T14:32:40;29.50;35.50
13436;DHT22;6790;49.520;8.504;2022-08-19T14:35:09;29.20;36.10
13436;DHT22;6790;49.520;8.504;2022-08-19T14:37:35;29.00;35.90
13436;DHT22;6790;49.520;8.504;2022-08-19T14:40:03;29.00;35.50
13436;DHT22;6790;49.520;8.504;2022-08-19T14:42:29;29.00;34.60
13436;DHT22;6790;49.520;8.504;2022-08-19T14:44:59;29.00;37.40
13436;DHT22;6790;49.520;8.504;2022-08-19T14:47:25;29.00;38.60
13436;DHT22;6790;49.520;8.504;2022-08-19T14:49:52;29.20;36.90
13436;DHT22;6790;49.520;8.504;2022-08-19T14:52:18;29.30;35.60
13436;DHT22;6790;49.520;8.504;2022-08-19T14:54:44;29.50;38.00
13436;DHT22;6790;49.520;8.504;2022-08-19T14:57:13;29.50;36.90
13436;DHT22;6790;49.520;8.504;2022-08-19T14:59:41;29.40;36.00
13436;DHT22;6790;49.520;8.504;2022-08-19T15:02:07;29.40;35.50
13436;DHT22;6790;49.520;8.504;2022-08-19T15:04:33;29.30;38.10
13436;DHT22;6790;49.520;8.504;2022-08-19T15:06:58;29.30;37.90
13436;DHT22;6790;49.520;8.504;2022-08-19T15:09:24;29.20;36.70
13436;DHT22;6790;49.520;8.504;2022-08-19T15:11:50;29.10;38.00
13436;DHT22;6790;49.520;8.504;2022-08-19T15:14:16;29.20;41.00
13436;DHT22;6790;49.520;8.504;2022-08-19T15:16:42;29.10;37.70
13436;DHT22;6790;49.520;8.504;2022-08-19T15:19:08;29.10;40.40
13436;DHT22;6790;49.520;8.504;2022-08-19T15:21:35;29.00;40.30
13436;DHT22;6790;49.520;8.504;2022-08-19T15:24:02;29.00;39.40
13436;DHT22;6790;49.520;8.504;2022-08-19T15:26:30;29.00;36.90
13436;DHT22;6790;49.520;8.504;2022-08-19T15:28:58;29.00;38.10
13436;DHT22;6790;49.520;8.504;2022-08-19T15:31:25;28.90;35.70
13436;DHT22;6790;49.520;8.504;2022-08-19T15:33:53;28.70;41.00
13436;DHT22;6790;49.520;8.504;2022-08-19T15:36:22;28.40;36.30
13436;DHT22;6790;49.520;8.504;2022-08-19T15:38:49;28.50;35.50
13436;DHT22;6790;49.520;8.504;2022-08-19T15:41:26;28.60;37.30
13436;DHT22;6790;49.520;8.504;2022-08-19T15:44:05;28.50;37.70
13436;DHT22;6790;49.520;8.504;2022-08-19T15:46:37;28.50;35.20
13436;DHT22;6790;49.520;8.504;2022-08-19T15:49:05;28.50;39.00
13436;DHT22;6790;49.520;8.504;2022-08-19T15:51:33;28.40;40.30
13436;DHT22;6790;49.520;8.504;2022-08-19T15:54:01;28.50;35.90
13436;DHT22;6790;49.520;8.504;2022-08-19T15:56:29;28.60;36.90
13436;DHT22;6790;49.520;8.504;2022-08-19T15:59:13;28.60;41.30
13436;DHT22;6790;49.520;8.504;2022-08-19T16:01:57;28.40;40.00
13436;DHT22;6790;49.520;8.504;2022-08-19T16:04:41;28.40;36.80
13436;DHT22;6790;49.520;8.504;2022-08-19T16:07:26;28.30;46.50